Time;durP1;ratioP1;P1;durP2;ratioP2;P2;SDS_P1;SDS_P2;PMS_P1;PMS_P2;Temp;Humidity;BMP_temperature;BMP_pressure;BME280_temperature;BME280_humidity;BME280_pressure;Samples;Min_cycle;Max_cycle;Signal;HPM_P1;HPM_P2
2020/12/15 00:02:10;;;;;;;25.23;11.88;;;2.70;99.90;;;;;;4944576;28;20424;-76
2020/12/15 00:04:36;;;;;;;25.02;11.73;;;2.70;99.90;;;;;;4951061;29;20031;-76
2020/12/15 00:07:02;;;;;;;28.20;12.73;;;2.70;99.90;;;;;;4949886;28;20031;-76
2020/12/15 00:09:28;;;;;;;29.48;12.60;;;2.70;99.90;;;;;;4950435;29;20039;-76
2020/12/15 00:11:54;;;;;;;27.25;12.00;;;2.70;99.90;;;;;;4933248;29;20039;-76
2020/12/15 00:14:20;;;;;;;27.70;11.80;;;2.70;99.90;;;;;;4952586;28;20512;-76
2020/12/15 00:16:45;;;;;;;28.02;11.80;;;2.80;99.90;;;;;;4932570;29;20055;-76
2020/12/15 00:19:12;;;;;;;26.52;11.23;;;2.70;99.90;;;;;;4947993;29;20126;-76
2020/12/15 00:21:42;;;;;;;27.08;11.82;;;2.80;99.90;;;;;;4951495;28;20448;-76
2020/12/15 00:24:09;;;;;;;31.88;12.45;;;2.80;99.90;;;;;;4987894;23;20096;-76
2020/12/15 00:26:34;;;;;;;26.70;12.15;;;2.80;99.90;;;;;;4980607;28;20121;-76
2020/12/15 00:29:00;;;;;;;27.95;12.43;;;2.80;99.90;;;;;;4991499;28;20512;-76
2020/12/15 00:31:34;;;;;;;29.30;12.30;;;2.80;99.90;;;;;;4985846;28;20046;-76
2020/12/15 00:34:01;;;;;;;30.08;11.70;;;2.70;99.90;;;;;;4972915;28;20029;-76
2020/12/15 00:36:27;;;;;;;24.67;11.43;;;2.80;99.90;;;;;;4986530;28;20117;-76
2020/12/15 00:38:53;;;;;;;28.75;12.80;;;2.80;99.90;;;;;;4981789;28;20521;-76
2020/12/15 00:41:19;;;;;;;27.42;12.32;;;2.80;99.90;;;;;;4972355;28;20114;-77
2020/12/15 00:43:44;;;;;;;24.98;11.40;;;2.80;99.90;;;;;;4975148;28;20035;-76
2020/12/15 00:46:13;;;;;;;23.13;11.45;;;2.80;99.90;;;;;;4988838;28;20105;-76
2020/12/15 00:48:40;;;;;;;28.60;12.02;;;2.80;99.90;;;;;;4991790;28;20459;-76
2020/12/15 00:51:06;;;;;;;26.55;11.23;;;2.80;99.90;;;;;;4987410;28;20038;-76
2020/12/15 00:53:32;;;;;;;28.38;12.00;;;2.80;99.90;;;;;;4973029;28;20129;-77
2020/12/15 00:55:58;;;;;;;25.58;11.68;;;2.70;99.90;;;;;;4990476;28;20030;-76
2020/12/15 00:58:23;;;;;;;26.92;12.82;;;2.80;99.90;;;;;;4991994;28;20558;-76
2020/12/15 01:00:49;;;;;;;26.80;12.52;;;2.80;99.90;;;;;;4990902;28;20558;-76
2020/12/15 01:03:15;;;;;;;24.73;11.55;;;2.70;99.90;;;;;;4966294;28;20031;-75
2020/12/15 01:05:42;;;;;;;22.95;10.95;;;2.80;99.90;;;;;;4984657;28;20396;-76
2020/12/15 01:08:08;;;;;;;28.70;12.50;;;2.70;99.90;;;;;;4991704;28;20030;-76
2020/12/15 01:10:34;;;;;;;26.98;11.40;;;2.80;99.90;;;;;;4986537;28;20408;-76
2020/12/15 01:12:59;;;;;;;23.33;10.48;;;2.70;99.90;;;;;;4971668;28;20496;-76
2020/12/15 01:15:25;;;;;;;25.02;11.85;;;2.70;99.90;;;;;;4977700;28;20070;-76
2020/12/15 01:17:51;;;;;;;30.08;12.52;;;2.70;99.90;;;;;;4971229;28;20034;-76
2020/12/15 01:20:24;;;;;;;25.27;12.30;;;2.70;99.90;;;;;;4971439;28;20125;-76
2020/12/15 01:22:50;;;;;;;28.50;11.80;;;2.70;99.90;;;;;;4971692;28;20119;-76
2020/12/15 01:25:26;;;;;;;23.10;10.02;;;2.70;99.90;;;;;;4982156;28;20088;-76
2020/12/15 01:27:57;;;;;;;26.23;10.90;;;2.60;99.90;;;;;;4990714;28;20034;-76
2020/12/15 01:30:23;;;;;;;27.40;11.35;;;2.60;99.90;;;;;;4974988;28;20037;-76
2020/12/15 01:33:07;;;;;;;25.10;11.35;;;2.60;99.90;;;;;;4971834;28;20041;-76
2020/12/15 01:35:54;;;;;;;26.35;11.40;;;2.60;99.90;;;;;;4982549;28;20051;-76
2020/12/15 01:38:27;;;;;;;25.60;11.65;;;2.60;99.90;;;;;;4990114;28;20038;-76
2020/12/15 01:40:53;;;;;;;26.63;11.85;;;2.50;99.90;;;;;;4989489;28;20512;-76
2020/12/15 01:43:20;;;;;;;22.83;11.30;;;2.50;99.90;;;;;;4982295;28;20401;-76
2020/12/15 01:45:46;;;;;;;27.10;11.80;;;2.50;99.90;;;;;;4987679;28;20031;-75
2020/12/15 01:48:12;;;;;;;27.95;11.38;;;2.50;99.90;;;;;;4990499;28;20082;-76
2020/12/15 01:50:45;;;;;;;24.98;10.70;;;2.50;99.90;;;;;;4989334;28;20042;-76
2020/12/15 01:53:15;;;;;;;24.15;10.80;;;2.50;99.90;;;;;;4970519;28;20066;-75
2020/12/15 01:55:46;;;;;;;24.27;10.85;;;2.40;99.90;;;;;;4979881;28;20038;-76
2020/12/15 01:58:15;;;;;;;24.50;11.57;;;2.40;99.90;;;;;;4971907;28;20050;-75
2020/12/15 02:00:48;;;;;;;22.95;10.00;;;2.40;99.90;;;;;;4986792;28;20034;-75
2020/12/15 02:03:17;;;;;;;20.73;10.77;;;2.40;99.90;;;;;;4964345;28;20026;-75
2020/12/15 02:06:03;;;;;;;22.33;10.25;;;2.40;99.90;;;;;;4986287;28;20058;-75
2020/12/15 02:08:42;;;;;;;19.90;10.00;;;2.40;99.90;;;;;;4971377;28;20035;-75
2020/12/15 02:11:09;;;;;;;22.70;9.52;;;2.40;99.90;;;;;;4969581;28;20031;-76
2020/12/15 02:13:36;;;;;;;21.75;9.75;;;2.40;99.90;;;;;;4973991;28;20466;-75
2020/12/15 02:16:08;;;;;;;20.30;9.68;;;2.40;99.90;;;;;;4988125;28;20127;-76
2020/12/15 02:18:34;;;;;;;22.30;10.27;;;2.40;99.90;;;;;;4990286;28;20034;-76
2020/12/15 02:21:09;;;;;;;18.20;8.63;;;2.30;99.90;;;;;;4988423;28;20101;-76
2020/12/15 02:23:45;;;;;;;26.25;10.38;;;2.20;99.90;;;;;;4970293;28;20043;-76
2020/12/15 02:26:25;;;;;;;23.08;10.52;;;2.30;99.90;;;;;;4986836;28;20388;-76
2020/12/15 02:28:51;;;;;;;26.75;9.95;;;2.30;99.90;;;;;;4978759;28;20038;-75
2020/12/15 02:31:16;;;;;;;20.35;9.57;;;2.30;99.90;;;;;;4990191;28;20456;-76
2020/12/15 02:33:45;;;;;;;21.38;9.52;;;2.30;99.90;;;;;;4979012;28;20100;-76
2020/12/15 02:36:12;;;;;;;21.40;9.30;;;2.20;99.90;;;;;;4988124;28;20042;-76
2020/12/15 02:39:05;;;;;;;21.05;9.68;;;2.20;99.90;;;;;;4989571;28;20046;-76
2020/12/15 02:41:31;;;;;;;19.02;8.45;;;2.20;99.90;;;;;;4983962;28;20078;-76
2020/12/15 02:44:00;;;;;;;21.15;9.88;;;2.20;99.90;;;;;;4969822;28;22275;-76
2020/12/15 02:46:26;;;;;;;18.27;8.63;;;2.10;99.90;;;;;;4977303;28;20090;-76
2020/12/15 02:48:54;;;;;;;19.88;8.77;;;2.10;99.90;;;;;;4970794;28;20555;-76
2020/12/15 02:51:21;;;;;;;18.33;8.90;;;2.10;99.90;;;;;;4969069;28;20042;-76
2020/12/15 02:54:19;;;;;;;17.67;8.70;;;2.10;99.90;;;;;;4975638;28;20030;-76
2020/12/15 02:56:45;;;;;;;17.63;8.82;;;2.20;99.90;;;;;;4986965;28;20034;-76
2020/12/15 02:59:11;;;;;;;16.60;8.02;;;2.20;99.90;;;;;;4970370;28;20023;-76
2020/12/15 03:01:41;;;;;;;17.52;8.23;;;2.10;99.90;;;;;;4972943;28;20572;-77
2020/12/15 03:04:10;;;;;;;17.90;8.43;;;2.20;99.90;;;;;;4973584;28;20023;-76
2020/12/15 03:06:40;;;;;;;18.15;8.07;;;2.10;99.90;;;;;;4969569;28;20035;-76
2020/12/15 03:09:10;;;;;;;19.00;8.07;;;2.10;99.90;;;;;;4983613;28;20097;-76
2020/12/15 03:11:42;;;;;;;18.98;8.32;;;2.10;99.90;;;;;;4989167;28;20387;-76
2020/12/15 03:14:18;;;;;;;16.30;8.50;;;2.10;99.90;;;;;;4985184;28;20121;-76
2020/12/15 03:16:45;;;;;;;17.23;8.02;;;2.10;99.90;;;;;;4974809;28;20555;-76
2020/12/15 03:19:11;;;;;;;19.35;8.50;;;2.10;99.90;;;;;;4973656;28;20054;-76
2020/12/15 03:21:37;;;;;;;16.98;8.40;;;2.20;99.90;;;;;;4972724;28;20062;-76
2020/12/15 03:24:05;;;;;;;17.02;7.80;;;2.20;99.90;;;;;;4974076;28;20042;-76
2020/12/15 03:26:32;;;;;;;20.90;8.85;;;2.20;99.90;;;;;;4978688;28;20552;-75
2020/12/15 03:29:02;;;;;;;20.48;7.80;;;2.30;99.90;;;;;;4958199;28;20035;-76
2020/12/15 03:31:28;;;;;;;18.63;8.80;;;2.30;99.90;;;;;;4971985;28;20058;-75
2020/12/15 03:33:54;;;;;;;17.23;8.73;;;2.30;99.90;;;;;;4976274;28;20504;-76
2020/12/15 03:36:20;;;;;;;17.38;8.45;;;2.30;99.90;;;;;;4975024;28;20042;-77
2020/12/15 03:38:47;;;;;;;15.75;8.35;;;2.30;99.90;;;;;;4990201;28;20039;-76
2020/12/15 03:41:15;;;;;;;15.02;7.97;;;2.30;99.90;;;;;;4989649;28;20038;-76
2020/12/15 03:43:55;;;;;;;20.38;7.85;;;2.30;99.90;;;;;;4971929;28;20042;-76
2020/12/15 03:46:30;;;;;;;21.58;9.25;;;2.30;99.90;;;;;;4981389;28;20039;-76
2020/12/15 03:48:59;;;;;;;17.70;8.35;;;2.30;99.90;;;;;;4981252;28;20049;-75
2020/12/15 03:51:28;;;;;;;15.52;7.78;;;2.30;99.90;;;;;;4991319;28;20504;-76
2020/12/15 03:54:20;;;;;;;17.48;8.32;;;2.30;99.90;;;;;;4975936;28;20038;-76
2020/12/15 03:57:09;;;;;;;15.50;7.70;;;2.30;99.90;;;;;;4975965;28;20047;-76
2020/12/15 03:59:45;;;;;;;19.48;8.05;;;2.30;99.90;;;;;;4958743;28;20497;-76
2020/12/15 04:02:11;;;;;;;19.27;8.27;;;2.20;99.90;;;;;;4969182;28;20034;-76
2020/12/15 04:04:37;;;;;;;19.27;9.10;;;2.20;99.90;;;;;;4973943;28;20042;-76
2020/12/15 04:07:03;;;;;;;17.63;8.32;;;2.20;99.90;;;;;;4969198;28;20501;-75
2020/12/15 04:09:36;;;;;;;15.23;7.78;;;2.20;99.90;;;;;;4986156;28;20034;-76
2020/12/15 04:12:03;;;;;;;16.90;8.32;;;2.20;99.90;;;;;;4989796;28;20069;-77
2020/12/15 04:14:28;;;;;;;18.10;7.88;;;2.30;99.90;;;;;;4966719;28;20066;-76
2020/12/15 04:16:54;;;;;;;17.92;7.72;;;2.30;99.90;;;;;;4973013;28;20600;-75
2020/12/15 04:19:20;;;;;;;19.45;8.48;;;2.30;99.90;;;;;;4972450;28;20089;-76
2020/12/15 04:21:46;;;;;;;16.63;7.97;;;2.30;99.90;;;;;;4959220;28;20807;-76
2020/12/15 04:24:14;;;;;;;17.95;7.72;;;2.30;99.90;;;;;;4981413;28;20049;-76
2020/12/15 04:26:50;;;;;;;18.55;8.38;;;2.40;99.90;;;;;;4959212;28;20038;-75
2020/12/15 04:29:17;;;;;;;17.00;8.32;;;2.30;99.90;;;;;;4982795;28;20042;-76
2020/12/15 04:31:57;;;;;;;18.65;8.68;;;2.30;99.90;;;;;;4990445;28;20035;-76
2020/12/15 04:34:24;;;;;;;20.55;8.95;;;2.30;99.90;;;;;;4978004;28;20035;-75
2020/12/15 04:36:51;;;;;;;16.60;8.02;;;2.30;99.90;;;;;;4989318;28;20506;-75
2020/12/15 04:39:25;;;;;;;17.95;8.27;;;2.30;99.90;;;;;;4972326;28;20038;-76
2020/12/15 04:41:51;;;;;;;17.13;7.47;;;2.40;99.90;;;;;;4962781;28;20405;-76
2020/12/15 04:44:17;;;;;;;15.10;7.88;;;2.40;99.90;;;;;;4972802;28;20030;-76
2020/12/15 04:47:11;;;;;;;14.77;6.57;;;2.40;99.90;;;;;;4974763;28;20517;-75
2020/12/15 04:50:04;;;;;;;15.48;7.47;;;2.30;99.90;;;;;;4969634;28;20026;-76
2020/12/15 04:52:44;;;;;;;18.58;7.85;;;2.40;99.90;;;;;;4986427;28;20042;-75
2020/12/15 04:55:16;;;;;;;19.45;8.35;;;2.40;99.90;;;;;;4987169;28;20050;-75
2020/12/15 04:57:46;;;;;;;16.88;7.85;;;2.40;99.90;;;;;;4991326;28;20042;-76
2020/12/15 05:00:12;;;;;;;19.05;8.07;;;2.40;99.90;;;;;;4991234;28;20041;-76
2020/12/15 05:03:08;;;;;;;;;;;2.40;99.90;;;;;;4961520;28;20027;-76
2020/12/15 05:05:34;;;;;;;19.17;7.82;;;2.40;99.90;;;;;;4971790;28;19968;-75
2020/12/15 05:08:02;;;;;;;20.17;8.55;;;2.50;99.90;;;;;;4973837;28;20038;-76
2020/12/15 05:10:37;;;;;;;21.85;10.05;;;2.50;99.90;;;;;;4971036;28;20034;-76
2020/12/15 05:13:23;;;;;;;19.80;8.52;;;2.50;99.90;;;;;;4980506;28;20074;-75
2020/12/15 05:15:56;;;;;;;21.02;8.73;;;2.50;99.90;;;;;;4971594;28;20112;-75
2020/12/15 05:18:46;;;;;;;23.35;9.98;;;2.60;99.90;;;;;;4991983;28;20564;-76
2020/12/15 05:21:19;;;;;;;23.55;8.93;;;2.60;99.90;;;;;;4991410;28;20038;-75
2020/12/15 05:23:51;;;;;;;17.30;8.32;;;2.60;99.90;;;;;;4973445;28;20070;-75
2020/12/15 05:26:26;;;;;;;22.45;10.15;;;2.60;99.90;;;;;;4973838;28;20027;-76
2020/12/15 05:29:08;;;;;;;22.10;9.50;;;2.60;99.90;;;;;;4978917;28;20034;-76
2020/12/15 05:31:57;;;;;;;23.70;9.73;;;2.60;99.90;;;;;;4990484;28;20054;-76
2020/12/15 05:34:37;;;;;;;22.83;9.82;;;2.60;99.90;;;;;;4976842;28;20537;-76
2020/12/15 05:37:35;;;;;;;25.52;9.95;;;2.70;99.90;;;;;;4973027;28;20050;-76
2020/12/15 05:40:23;;;;;;;22.65;9.85;;;2.70;99.90;;;;;;4971335;28;20043;-75
2020/12/15 05:43:09;;;;;;;19.83;9.57;;;2.70;99.90;;;;;;4972112;28;20068;-75
2020/12/15 05:45:35;;;;;;;27.27;10.48;;;2.70;99.90;;;;;;4971625;28;20454;-75
2020/12/15 05:48:03;;;;;;;24.67;10.23;;;2.70;99.90;;;;;;4972873;28;20031;-76
2020/12/15 05:50:29;;;;;;;21.95;9.27;;;2.70;99.90;;;;;;4972460;28;20085;-76
2020/12/15 05:53:05;;;;;;;22.17;10.20;;;2.70;99.90;;;;;;4970681;28;20030;-76
2020/12/15 05:55:31;;;;;;;27.33;10.45;;;2.70;99.90;;;;;;4984729;28;20542;-75
2020/12/15 05:57:59;;;;;;;28.50;11.35;;;2.70;99.90;;;;;;4981163;28;20031;-75
2020/12/15 06:00:27;;;;;;;24.73;10.82;;;2.70;99.90;;;;;;4971016;28;20090;-76
2020/12/15 06:03:04;;;;;;;25.15;10.05;;;2.70;99.90;;;;;;4970678;28;20023;-76
2020/12/15 06:05:32;;;;;;;20.67;9.20;;;2.70;99.90;;;;;;4971994;28;20023;-76
2020/12/15 06:08:00;;;;;;;25.23;10.57;;;2.70;99.90;;;;;;4976822;28;20070;-74
2020/12/15 06:10:26;;;;;;;26.50;11.20;;;2.80;99.90;;;;;;4991561;28;20066;-75
2020/12/15 06:12:54;;;;;;;21.55;9.82;;;2.80;99.90;;;;;;4984376;28;20030;-75
2020/12/15 06:15:20;;;;;;;25.88;10.90;;;2.80;99.90;;;;;;4982861;28;20033;-75
2020/12/15 06:17:52;;;;;;;20.58;9.75;;;2.80;99.90;;;;;;4990116;28;20031;-74
2020/12/15 06:20:21;;;;;;;23.95;10.32;;;2.80;99.90;;;;;;4991694;28;20395;-75
2020/12/15 06:22:54;;;;;;;25.92;10.57;;;2.80;99.90;;;;;;4994472;23;20404;-77
2020/12/15 06:25:31;;;;;;;24.20;10.35;;;2.80;99.90;;;;;;4961886;28;20110;-78
2020/12/15 06:28:11;;;;;;;25.88;9.25;;;2.80;99.90;;;;;;4965564;28;20508;-77
2020/12/15 06:30:42;;;;;;;29.60;11.23;;;2.80;99.90;;;;;;4939277;29;20381;-78
2020/12/15 06:33:11;;;;;;;25.92;9.80;;;2.80;99.90;;;;;;4956241;29;20035;-79
2020/12/15 06:35:37;;;;;;;27.40;10.20;;;2.80;99.90;;;;;;4965536;28;20042;-76
2020/12/15 06:38:04;;;;;;;28.35;10.02;;;2.80;99.90;;;;;;4959460;28;20436;-76
2020/12/15 06:40:44;;;;;;;24.25;10.73;;;2.80;99.90;;;;;;4974912;28;20050;-76
2020/12/15 06:43:10;;;;;;;27.80;11.10;;;2.80;99.90;;;;;;4974397;28;20795;-76
2020/12/15 06:45:36;;;;;;;26.15;10.55;;;2.80;99.90;;;;;;4971923;28;20027;-77
2020/12/15 06:48:06;;;;;;;26.15;10.32;;;2.90;99.90;;;;;;4963458;28;20121;-77
2020/12/15 06:50:46;;;;;;;25.38;11.05;;;2.90;99.90;;;;;;4975741;28;20038;-79
2020/12/15 06:53:18;;;;;;;22.02;10.05;;;2.80;99.90;;;;;;4973045;28;20165;-77
2020/12/15 06:55:44;;;;;;;23.65;10.77;;;2.90;99.90;;;;;;4954768;28;20036;-77
2020/12/15 06:58:10;;;;;;;22.95;10.63;;;2.90;99.90;;;;;;4966465;28;20053;-77
2020/12/15 07:00:40;;;;;;;22.70;10.00;;;2.90;99.90;;;;;;4975060;28;20023;-77
2020/12/15 07:03:07;;;;;;;25.70;10.90;;;2.90;99.90;;;;;;4973330;28;21196;-77
2020/12/15 07:05:35;;;;;;;26.92;10.52;;;2.90;99.90;;;;;;4961528;28;20370;-76
2020/12/15 07:08:08;;;;;;;23.08;10.85;;;3.00;99.90;;;;;;4966190;28;20030;-77
2020/12/15 07:10:38;;;;;;;25.02;11.15;;;3.00;99.90;;;;;;4974112;28;20046;-77
2020/12/15 07:13:04;;;;;;;22.98;10.45;;;2.90;99.90;;;;;;4970719;28;20033;-76
2020/12/15 07:15:32;;;;;;;23.48;10.38;;;3.00;99.90;;;;;;4965935;28;20476;-78
2020/12/15 07:17:58;;;;;;;23.10;10.30;;;2.90;99.90;;;;;;4973126;28;20038;-76
2020/12/15 07:20:24;;;;;;;27.13;10.82;;;2.90;99.90;;;;;;4973363;28;20121;-77
2020/12/15 07:22:50;;;;;;;26.75;11.27;;;2.90;99.90;;;;;;4973645;28;20058;-77
2020/12/15 07:25:17;;;;;;;27.52;11.32;;;3.00;99.90;;;;;;4972394;28;20514;-75
2020/12/15 07:27:44;;;;;;;23.90;10.70;;;2.90;99.90;;;;;;4973984;28;20029;-77
2020/12/15 07:30:11;;;;;;;25.27;10.23;;;2.90;99.90;;;;;;4973903;28;20085;-77
2020/12/15 07:32:38;;;;;;;24.70;11.25;;;2.90;99.90;;;;;;4972590;28;20106;-78
2020/12/15 07:35:13;;;;;;;21.80;9.93;;;2.80;99.90;;;;;;4967057;28;20462;-77
2020/12/15 07:37:44;;;;;;;27.17;11.02;;;2.80;99.90;;;;;;4963134;28;20109;-78
2020/12/15 07:40:15;;;;;;;20.95;10.85;;;2.80;99.90;;;;;;4974024;28;20034;-78
2020/12/15 07:42:41;;;;;;;25.58;11.05;;;2.90;99.90;;;;;;4971575;28;20085;-78
2020/12/15 07:45:10;;;;;;;20.48;9.10;;;2.90;99.90;;;;;;4969066;28;20031;-78
2020/12/15 07:47:42;;;;;;;22.15;10.43;;;2.90;99.90;;;;;;4961291;28;20043;-78
2020/12/15 07:50:09;;;;;;;22.73;10.45;;;2.80;99.90;;;;;;4972799;28;20121;-78
2020/12/15 07:52:36;;;;;;;25.63;11.25;;;2.80;99.90;;;;;;4971926;28;20481;-78
2020/12/15 07:55:13;;;;;;;21.52;10.60;;;2.80;99.90;;;;;;4963743;28;20603;-76
2020/12/15 07:57:41;;;;;;;22.50;10.05;;;2.80;99.90;;;;;;4964077;28;20034;-77
2020/12/15 08:00:08;;;;;;;19.27;9.27;;;2.80;99.90;;;;;;4974483;28;20077;-77
2020/12/15 08:02:39;;;;;;;18.00;8.15;;;2.80;99.90;;;;;;4972510;28;20038;-77
2020/12/15 08:05:18;;;;;;;20.15;8.90;;;2.80;99.90;;;;;;4971047;28;20054;-78
2020/12/15 08:07:46;;;;;;;23.25;10.48;;;2.80;99.90;;;;;;4962860;28;20457;-78
2020/12/15 08:10:13;;;;;;;21.85;9.68;;;2.90;99.90;;;;;;4955643;28;20053;-76
2020/12/15 08:12:41;;;;;;;21.38;10.27;;;3.00;99.90;;;;;;4970385;28;20366;-77
2020/12/15 08:15:08;;;;;;;16.50;8.68;;;3.00;99.90;;;;;;4971666;28;20085;-78
2020/12/15 08:17:34;;;;;;;19.13;8.73;;;3.00;99.90;;;;;;4963147;28;20512;-77
2020/12/15 08:20:06;;;;;;;19.05;8.90;;;3.00;99.90;;;;;;4974336;28;20076;-77
2020/12/15 08:22:41;;;;;;;17.40;7.88;;;3.00;99.90;;;;;;4972754;28;20034;-77
2020/12/15 08:25:16;;;;;;;16.23;7.43;;;3.10;99.90;;;;;;4968286;28;20031;-78
2020/12/15 08:27:42;;;;;;;13.75;7.28;;;3.20;99.90;;;;;;4954498;28;20492;-78
2020/12/15 08:30:20;;;;;;;13.30;6.78;;;3.20;99.90;;;;;;4965340;28;20046;-78
2020/12/15 08:32:48;;;;;;;14.70;7.28;;;3.30;99.90;;;;;;4971475;28;20117;-78
2020/12/15 08:35:21;;;;;;;13.18;7.50;;;3.30;99.90;;;;;;4963779;28;20038;-78
2020/12/15 08:37:53;;;;;;;13.63;7.30;;;3.30;99.90;;;;;;4964275;28;20035;-77
2020/12/15 08:40:19;;;;;;;13.45;7.25;;;3.40;99.90;;;;;;4972902;28;20185;-78
2020/12/15 08:42:46;;;;;;;15.88;7.82;;;3.50;99.90;;;;;;4972721;28;20038;-77
2020/12/15 08:45:15;;;;;;;15.60;7.63;;;3.50;99.90;;;;;;4970994;28;20019;-78
2020/12/15 08:47:47;;;;;;;15.32;7.10;;;3.50;99.90;;;;;;4972299;28;20505;-77
2020/12/15 08:50:15;;;;;;;15.80;7.85;;;3.50;99.90;;;;;;4973610;28;20027;-78
2020/12/15 08:52:44;;;;;;;15.38;7.50;;;3.50;99.90;;;;;;4970889;28;20504;-80
2020/12/15 08:55:10;;;;;;;14.52;7.43;;;3.50;99.90;;;;;;4963626;28;20429;-77
2020/12/15 08:57:36;;;;;;;14.82;7.30;;;3.50;99.90;;;;;;4962352;28;20117;-77
2020/12/15 09:00:13;;;;;;;19.08;8.80;;;3.50;99.90;;;;;;4972623;28;20034;-76
2020/12/15 09:02:39;;;;;;;16.10;8.40;;;3.60;99.90;;;;;;4954671;28;20035;-77
2020/12/15 09:05:09;;;;;;;17.67;8.30;;;3.60;99.90;;;;;;4971322;28;20108;-77
2020/12/15 09:07:36;;;;;;;14.80;7.57;;;3.70;99.90;;;;;;4963663;28;20035;-78
2020/12/15 09:10:13;;;;;;;15.13;7.85;;;3.70;99.90;;;;;;4969519;28;20026;-77
2020/12/15 09:12:46;;;;;;;16.58;7.65;;;3.60;99.90;;;;;;4952899;28;20039;-76
2020/12/15 09:15:12;;;;;;;14.98;7.90;;;3.70;99.90;;;;;;4963552;28;20035;-78
2020/12/15 09:17:38;;;;;;;15.57;7.50;;;3.70;99.90;;;;;;4960761;28;20041;-78
2020/12/15 09:20:08;;;;;;;16.42;7.93;;;3.80;99.90;;;;;;4972060;28;20508;-78
2020/12/15 09:22:36;;;;;;;19.75;8.40;;;3.90;99.90;;;;;;4958331;28;20035;-78
2020/12/15 09:25:05;;;;;;;20.00;8.35;;;3.90;99.90;;;;;;4958657;28;20031;-80
2020/12/15 09:27:33;;;;;;;15.35;8.02;;;4.00;99.90;;;;;;4953664;28;20039;-80
2020/12/15 09:29:59;;;;;;;14.60;7.18;;;3.90;99.90;;;;;;4969564;28;20035;-78
2020/12/15 09:32:33;;;;;;;17.48;8.65;;;3.90;99.90;;;;;;4971167;28;20423;-77
2020/12/15 09:35:00;;;;;;;16.83;8.67;;;3.90;99.90;;;;;;4948141;28;20041;-77
2020/12/15 09:37:25;;;;;;;16.75;8.25;;;3.90;99.90;;;;;;4961551;28;20066;-78
2020/12/15 09:39:51;;;;;;;16.25;8.43;;;3.90;99.90;;;;;;4972115;28;20038;-76
2020/12/15 09:42:19;;;;;;;15.13;7.78;;;4.00;99.90;;;;;;4970735;28;20034;-79
2020/12/15 09:44:48;;;;;;;19.85;8.55;;;4.00;99.90;;;;;;4968517;28;20042;-77
2020/12/15 09:47:14;;;;;;;19.08;9.82;;;4.00;99.90;;;;;;4954567;28;20035;-78
2020/12/15 09:49:40;;;;;;;16.63;8.05;;;4.00;99.90;;;;;;4951061;28;20050;-77
2020/12/15 09:52:06;;;;;;;16.33;8.07;;;4.00;99.90;;;;;;4970481;28;20434;-77
2020/12/15 09:54:32;;;;;;;19.38;8.88;;;4.00;99.90;;;;;;4969136;28;20073;-78
2020/12/15 09:56:58;;;;;;;18.63;8.40;;;4.00;99.90;;;;;;4963165;28;20115;-76
2020/12/15 09:59:23;;;;;;;20.55;8.60;;;4.00;99.90;;;;;;4972240;28;20485;-78
2020/12/15 10:01:49;;;;;;;18.60;8.75;;;4.00;99.90;;;;;;4970439;28;20027;-77
2020/12/15 10:04:15;;;;;;;17.15;8.10;;;3.90;99.90;;;;;;4969404;28;20038;-76
2020/12/15 10:06:42;;;;;;;19.30;8.90;;;3.90;99.90;;;;;;4971390;28;20077;-76
2020/12/15 10:09:08;;;;;;;23.05;9.90;;;3.80;99.90;;;;;;4970111;28;20127;-78
2020/12/15 10:11:34;;;;;;;19.88;9.40;;;3.90;99.90;;;;;;4962077;28;20035;-77
2020/12/15 10:14:02;;;;;;;18.60;9.10;;;3.80;99.90;;;;;;4962657;28;20125;-77
2020/12/15 10:16:27;;;;;;;17.50;8.75;;;3.80;99.90;;;;;;4958404;28;20058;-76
2020/12/15 10:18:53;;;;;;;17.52;8.88;;;3.80;99.90;;;;;;4972271;28;20507;-79
2020/12/15 10:21:19;;;;;;;17.83;9.00;;;3.80;99.90;;;;;;4971252;28;20030;-77
2020/12/15 10:23:49;;;;;;;21.38;9.70;;;3.80;99.90;;;;;;4964297;28;20035;-77
2020/12/15 10:26:27;;;;;;;17.02;8.60;;;3.80;99.90;;;;;;4966650;28;20027;-78
2020/12/15 10:28:54;;;;;;;17.38;8.90;;;3.80;99.90;;;;;;4970352;28;20037;-79
2020/12/15 10:31:20;;;;;;;16.75;9.00;;;3.80;99.90;;;;;;4970316;28;20039;-77
2020/12/15 10:33:46;;;;;;;18.27;8.95;;;3.90;99.90;;;;;;4965462;28;20042;-76
2020/12/15 10:36:13;;;;;;;19.50;9.57;;;3.90;99.90;;;;;;4938139;28;20043;-77
2020/12/15 10:38:39;;;;;;;19.60;8.82;;;3.90;99.90;;;;;;4970384;28;20118;-78
2020/12/15 10:41:07;;;;;;;19.05;9.00;;;3.90;99.90;;;;;;4971176;28;20026;-76
2020/12/15 10:43:33;;;;;;;19.05;9.40;;;4.00;99.90;;;;;;4970069;28;20604;-79
2020/12/15 10:45:59;;;;;;;18.13;8.52;;;4.00;99.90;;;;;;4961831;28;20023;-78
2020/12/15 10:48:25;;;;;;;18.75;9.45;;;4.00;99.90;;;;;;4971476;28;20031;-77
2020/12/15 10:50:51;;;;;;;22.13;8.73;;;4.00;99.90;;;;;;4970313;28;20046;-78
2020/12/15 10:53:18;;;;;;;17.50;8.05;;;4.10;99.90;;;;;;4936529;28;20149;-78
2020/12/15 10:55:51;;;;;;;17.48;9.07;;;4.30;99.90;;;;;;4968782;28;20078;-76
2020/12/15 10:58:17;;;;;;;21.67;9.13;;;4.40;99.90;;;;;;4971962;28;20031;-76
2020/12/15 11:00:43;;;;;;;18.25;8.52;;;4.60;99.90;;;;;;4970702;28;20030;-77
2020/12/15 11:03:09;;;;;;;19.20;9.50;;;4.60;99.90;;;;;;4955563;28;20428;-77
2020/12/15 11:05:35;;;;;;;20.05;9.27;;;4.70;99.90;;;;;;4972610;28;20097;-76
2020/12/15 11:08:01;;;;;;;16.90;8.25;;;4.60;99.90;;;;;;4963978;28;20027;-77
2020/12/15 11:10:27;;;;;;;21.15;9.68;;;4.60;99.90;;;;;;4974657;28;20031;-76
2020/12/15 11:12:53;;;;;;;20.25;9.45;;;4.60;99.90;;;;;;4972105;28;20038;-76
2020/12/15 11:15:18;;;;;;;20.10;9.00;;;4.60;99.90;;;;;;4966752;28;20035;-77
2020/12/15 11:17:44;;;;;;;19.67;8.75;;;4.60;99.90;;;;;;4963434;28;20121;-76
2020/12/15 11:20:10;;;;;;;17.33;8.98;;;4.70;99.90;;;;;;4975132;28;20460;-77
2020/12/15 11:22:36;;;;;;;16.98;9.13;;;4.70;99.90;;;;;;4973721;28;20505;-76
2020/12/15 11:25:01;;;;;;;16.45;8.80;;;4.70;99.90;;;;;;4972275;28;20035;-76
2020/12/15 11:27:27;;;;;;;19.33;8.48;;;4.80;99.90;;;;;;4972410;28;20037;-76
2020/12/15 11:29:53;;;;;;;16.95;7.97;;;4.80;99.90;;;;;;4975339;28;20039;-76
2020/12/15 11:32:19;;;;;;;16.33;8.13;;;4.80;99.90;;;;;;4973655;28;20601;-76
2020/12/15 11:34:44;;;;;;;19.58;8.82;;;4.80;99.90;;;;;;4962539;28;20034;-77
2020/12/15 11:37:12;;;;;;;18.23;8.73;;;4.80;99.90;;;;;;4959468;28;20084;-75
2020/12/15 11:39:39;;;;;;;18.75;9.32;;;4.80;99.90;;;;;;4975244;28;20039;-75
2020/12/15 11:42:10;;;;;;;15.50;7.97;;;4.80;99.90;;;;;;4972316;28;20039;-76
2020/12/15 11:44:36;;;;;;;16.40;8.73;;;4.90;99.90;;;;;;4964053;28;20374;-76
2020/12/15 11:47:02;;;;;;;15.77;7.97;;;4.90;99.90;;;;;;4963093;28;20389;-77
2020/12/15 11:49:28;;;;;;;16.27;8.23;;;5.00;99.90;;;;;;4964237;28;20402;-76
2020/12/15 11:51:55;;;;;;;21.90;8.90;;;5.00;99.90;;;;;;4954259;29;20039;-76
2020/12/15 11:54:22;;;;;;;16.42;8.38;;;5.00;99.90;;;;;;4969752;28;20063;-78
2020/12/15 11:56:50;;;;;;;18.27;9.18;;;5.00;99.90;;;;;;4970022;28;20034;-77
2020/12/15 11:59:16;;;;;;;19.88;9.00;;;4.90;99.90;;;;;;4973610;28;20070;-76
2020/12/15 12:01:42;;;;;;;17.73;9.45;;;4.90;99.90;;;;;;4973538;28;20023;-77
2020/12/15 12:04:08;;;;;;;16.10;8.95;;;4.90;99.90;;;;;;4969523;28;20034;-77
2020/12/15 12:06:34;;;;;;;15.88;8.13;;;4.80;99.90;;;;;;4934009;29;20035;-77
2020/12/15 12:09:01;;;;;;;18.13;8.70;;;4.80;99.90;;;;;;4972934;28;20315;-77
2020/12/15 12:11:27;;;;;;;18.70;8.43;;;4.90;99.90;;;;;;4973313;28;20037;-78
2020/12/15 12:13:54;;;;;;;17.25;8.82;;;5.00;99.90;;;;;;4970965;28;20039;-77
2020/12/15 12:16:22;;;;;;;18.15;8.52;;;5.10;99.90;;;;;;4969094;28;20504;-77
2020/12/15 12:18:48;;;;;;;18.95;8.93;;;5.10;99.90;;;;;;4974486;28;20125;-76
2020/12/15 12:21:13;;;;;;;14.50;7.43;;;5.10;99.90;;;;;;4972767;28;20161;-76
2020/12/15 12:23:41;;;;;;;15.82;8.10;;;5.10;99.90;;;;;;4989908;23;20042;-74
2020/12/15 12:26:07;;;;;;;16.55;7.72;;;5.10;99.90;;;;;;4982696;28;20506;-73
2020/12/15 12:28:32;;;;;;;16.00;8.30;;;5.20;99.90;;;;;;4990779;28;20117;-73
2020/12/15 12:30:58;;;;;;;15.18;8.35;;;5.20;99.90;;;;;;4979673;28;20039;-74
2020/12/15 12:33:24;;;;;;;15.85;7.68;;;5.30;99.90;;;;;;4980490;28;20053;-73
2020/12/15 12:35:53;;;;;;;16.42;8.18;;;5.30;99.90;;;;;;4978053;28;20650;-72
2020/12/15 12:38:20;;;;;;;14.43;6.60;;;5.30;99.90;;;;;;4973029;28;20133;-72
2020/12/15 12:40:47;;;;;;;16.95;7.60;;;5.30;99.90;;;;;;4979856;28;20033;-74
2020/12/15 12:43:14;;;;;;;18.50;8.88;;;5.20;99.90;;;;;;4962517;28;20050;-74
2020/12/15 12:45:40;;;;;;;16.05;7.72;;;5.20;99.90;;;;;;4977989;28;20350;-74
2020/12/15 12:48:10;;;;;;;15.15;7.93;;;5.20;99.90;;;;;;4980662;28;20018;-74
2020/12/15 12:50:35;;;;;;;15.90;8.90;;;5.20;99.90;;;;;;4969946;28;20035;-74
2020/12/15 12:53:02;;;;;;;16.75;8.32;;;5.30;99.90;;;;;;4973123;28;20073;-74
2020/12/15 12:55:27;;;;;;;16.95;8.63;;;5.30;99.90;;;;;;4982604;28;20038;-74